sensor_id;sensor_type;location;lat;lon;timestamp;pressure;altitude;pressure_sealevel;temperature;humidity
50065;BME280;64524;47.848;-122.338;2023-04-22T00:00:57;102648.71;;;12.18;100.00
50065;BME280;64524;47.848;-122.338;2023-04-22T00:03:29;102646.31;;;12.14;100.00
50065;BME280;64524;47.848;-122.338;2023-04-22T00:06:06;102646.75;;;12.12;100.00
50065;BME280;64524;47.848;-122.338;2023-04-22T00:12:32;102653.17;;;12.06;100.00
50065;BME280;64524;47.848;-122.338;2023-04-22T00:15:08;102654.30;;;12.04;100.00
50065;BME280;64524;47.848;-122.338;2023-04-22T00:17:57;102653.30;;;12.01;100.00
50065;BME280;64524;47.848;-122.338;2023-04-22T00:20:51;102655.08;;;11.97;100.00
50065;BME280;64524;47.848;-122.338;2023-04-22T00:23:42;102651.27;;;11.93;100.00
50065;BME280;64524;47.848;-122.338;2023-04-22T00:26:32;102649.66;;;11.92;100.00
50065;BME280;64524;47.848;-122.338;2023-04-22T00:39:08;102632.29;;;11.91;100.00
50065;BME280;64524;47.848;-122.338;2023-04-22T00:44:51;102632.67;;;11.88;100.00
50065;BME280;64524;47.848;-122.338;2023-04-22T00:48:02;102633.77;;;11.85;100.00
50065;BME280;64524;47.848;-122.338;2023-04-22T00:51:02;102634.98;;;11.85;100.00
50065;BME280;64524;47.848;-122.338;2023-04-22T00:53:43;102635.49;;;11.85;100.00
50065;BME280;64524;47.848;-122.338;2023-04-22T00:56:32;102630.21;;;11.83;100.00
50065;BME280;64524;47.848;-122.338;2023-04-22T01:07:05;102620.42;;;11.81;100.00
50065;BME280;64524;47.848;-122.338;2023-04-22T01:16:07;102635.30;;;11.85;100.00
50065;BME280;64524;47.848;-122.338;2023-04-22T01:19:19;102628.55;;;11.85;100.00
50065;BME280;64524;47.848;-122.338;2023-04-22T01:22:00;102631.50;;;11.85;100.00
50065;BME280;64524;47.848;-122.338;2023-04-22T01:30:56;102622.40;;;11.83;100.00
50065;BME280;64524;47.848;-122.338;2023-04-22T01:33:58;102624.77;;;11.81;100.00
50065;BME280;64524;47.848;-122.338;2023-04-22T01:43:33;102620.31;;;11.79;100.00
50065;BME280;64524;47.848;-122.338;2023-04-22T01:46:55;102613.00;;;11.78;100.00
50065;BME280;64524;47.848;-122.338;2023-04-22T01:52:59;102613.81;;;11.77;100.00
50065;BME280;64524;47.848;-122.338;2023-04-22T02:06:22;102594.54;;;11.81;100.00
50065;BME280;64524;47.848;-122.338;2023-04-22T02:36:56;102593.48;;;11.85;100.00
50065;BME280;64524;47.848;-122.338;2023-04-22T02:39:39;102588.05;;;11.84;100.00
50065;BME280;64524;47.848;-122.338;2023-04-22T02:42:19;102586.07;;;11.82;100.00
50065;BME280;64524;47.848;-122.338;2023-04-22T02:45:09;102589.40;;;11.83;100.00
50065;BME280;64524;47.848;-122.338;2023-04-22T02:47:47;102582.79;;;11.82;100.00
50065;BME280;64524;47.848;-122.338;2023-04-22T02:50:22;102578.75;;;11.81;100.00
50065;BME280;64524;47.848;-122.338;2023-04-22T02:53:04;102578.92;;;11.81;100.00
50065;BME280;64524;47.848;-122.338;2023-04-22T02:59:05;102564.23;;;11.78;100.00
50065;BME280;64524;47.848;-122.338;2023-04-22T03:02:07;102562.06;;;11.76;100.00
50065;BME280;64524;47.848;-122.338;2023-04-22T03:04:48;102567.45;;;11.76;100.00
50065;BME280;64524;47.848;-122.338;2023-04-22T03:07:37;102567.84;;;11.77;100.00
50065;BME280;64524;47.848;-122.338;2023-04-22T03:14:07;102569.00;;;11.76;100.00
50065;BME280;64524;47.848;-122.338;2023-04-22T03:17:16;102567.21;;;11.74;100.00
50065;BME280;64524;47.848;-122.338;2023-04-22T03:29:56;102580.29;;;11.57;100.00
50065;BME280;64524;47.848;-122.338;2023-04-22T03:32:46;102580.35;;;11.49;100.00
50065;BME280;64524;47.848;-122.338;2023-04-22T03:39:26;102577.39;;;11.35;100.00
50065;BME280;64524;47.848;-122.338;2023-04-22T03:42:06;102576.33;;;11.29;100.00
50065;BME280;64524;47.848;-122.338;2023-04-22T03:44:56;102567.79;;;11.24;100.00
50065;BME280;64524;47.848;-122.338;2023-04-22T03:47:25;102573.33;;;11.20;100.00
50065;BME280;64524;47.848;-122.338;2023-04-22T03:50:18;102572.11;;;11.15;100.00
50065;BME280;64524;47.848;-122.338;2023-04-22T03:52:50;102572.09;;;11.10;100.00
50065;BME280;64524;47.848;-122.338;2023-04-22T03:55:24;102574.15;;;11.05;100.00
50065;BME280;64524;47.848;-122.338;2023-04-22T04:00:54;102581.45;;;10.97;100.00
50065;BME280;64524;47.848;-122.338;2023-04-22T04:03:58;102590.15;;;10.93;100.00
50065;BME280;64524;47.848;-122.338;2023-04-22T04:10:06;102591.90;;;10.85;100.00
50065;BME280;64524;47.848;-122.338;2023-04-22T04:13:04;102591.39;;;10.81;100.00
50065;BME280;64524;47.848;-122.338;2023-04-22T04:22:40;102591.05;;;10.68;100.00
50065;BME280;64524;47.848;-122.338;2023-04-22T04:25:32;102595.50;;;10.63;100.00
50065;BME280;64524;47.848;-122.338;2023-04-22T04:28:15;102601.77;;;10.59;100.00
50065;BME280;64524;47.848;-122.338;2023-04-22T04:31:06;102606.15;;;10.56;100.00
50065;BME280;64524;47.848;-122.338;2023-04-22T04:34:08;102608.84;;;10.54;100.00
50065;BME280;64524;47.848;-122.338;2023-04-22T04:37:01;102606.79;;;10.50;100.00
50065;BME280;64524;47.848;-122.338;2023-04-22T04:39:59;102607.93;;;10.49;100.00
50065;BME280;64524;47.848;-122.338;2023-04-22T04:43:14;102600.88;;;10.46;100.00
50065;BME280;64524;47.848;-122.338;2023-04-22T04:52:06;102600.04;;;10.38;100.00
50065;BME280;64524;47.848;-122.338;2023-04-22T04:55:06;102599.95;;;10.36;100.00
50065;BME280;64524;47.848;-122.338;2023-04-22T04:58:19;102598.15;;;10.35;100.00
50065;BME280;64524;47.848;-122.338;2023-04-22T05:01:06;102598.80;;;10.33;100.00
50065;BME280;64524;47.848;-122.338;2023-04-22T05:03:53;102597.20;;;10.32;100.00
50065;BME280;64524;47.848;-122.338;2023-04-22T05:06:31;102591.98;;;10.32;100.00
50065;BME280;64524;47.848;-122.338;2023-04-22T05:09:05;102589.44;;;10.33;100.00
50065;BME280;64524;47.848;-122.338;2023-04-22T05:14:34;102587.05;;;10.34;100.00
50065;BME280;64524;47.848;-122.338;2023-04-22T05:17:07;102578.90;;;10.34;100.00
50065;BME280;64524;47.848;-122.338;2023-04-22T05:20:00;102573.64;;;10.37;100.00
50065;BME280;64524;47.848;-122.338;2023-04-22T05:22:49;102577.05;;;10.40;100.00
50065;BME280;64524;47.848;-122.338;2023-04-22T05:25:21;102583.80;;;10.39;100.00
50065;BME280;64524;47.848;-122.338;2023-04-22T05:28:15;102585.19;;;10.40;100.00
50065;BME280;64524;47.848;-122.338;2023-04-22T05:30:57;102581.93;;;10.40;100.00
50065;BME280;64524;47.848;-122.338;2023-04-22T05:33:52;102575.57;;;10.41;100.00
50065;BME280;64524;47.848;-122.338;2023-04-22T05:36:22;102568.63;;;10.41;100.00
50065;BME280;64524;47.848;-122.338;2023-04-22T05:39:00;102568.63;;;10.41;100.00
50065;BME280;64524;47.848;-122.338;2023-04-22T05:41:52;102560.83;;;10.41;100.00
50065;BME280;64524;47.848;-122.338;2023-04-22T05:44:53;102555.80;;;10.41;100.00
50065;BME280;64524;47.848;-122.338;2023-04-22T05:47:26;102552.44;;;10.39;100.00
50065;BME280;64524;47.848;-122.338;2023-04-22T05:52:56;102557.05;;;10.37;100.00
50065;BME280;64524;47.848;-122.338;2023-04-22T05:58:48;102544.97;;;10.39;100.00
50065;BME280;64524;47.848;-122.338;2023-04-22T06:12:22;102534.95;;;10.40;100.00
50065;BME280;64524;47.848;-122.338;2023-04-22T06:14:52;102532.67;;;10.39;100.00
50065;BME280;64524;47.848;-122.338;2023-04-22T06:17:29;102528.12;;;10.37;100.00
50065;BME280;64524;47.848;-122.338;2023-04-22T06:19:58;102529.36;;;10.38;100.00
50065;BME280;64524;47.848;-122.338;2023-04-22T06:22:57;102520.52;;;10.38;100.00
50065;BME280;64524;47.848;-122.338;2023-04-22T06:25:50;102519.45;;;10.37;100.00
50065;BME280;64524;47.848;-122.338;2023-04-22T06:28:23;102517.16;;;10.36;100.00
50065;BME280;64524;47.848;-122.338;2023-04-22T06:31:18;102511.55;;;10.35;100.00
50065;BME280;64524;47.848;-122.338;2023-04-22T06:33:50;102508.55;;;10.34;100.00
50065;BME280;64524;47.848;-122.338;2023-04-22T06:36:37;102508.64;;;10.32;100.00
50065;BME280;64524;47.848;-122.338;2023-04-22T06:39:09;102503.19;;;10.30;100.00
50065;BME280;64524;47.848;-122.338;2023-04-22T06:41:52;102497.92;;;10.28;100.00
50065;BME280;64524;47.848;-122.338;2023-04-22T06:44:53;102494.05;;;10.27;100.00
50065;BME280;64524;47.848;-122.338;2023-04-22T06:47:26;102487.05;;;10.26;100.00
50065;BME280;64524;47.848;-122.338;2023-04-22T06:52:55;102480.77;;;10.20;100.00
50065;BME280;64524;47.848;-122.338;2023-04-22T06:55:35;102473.14;;;10.15;100.00
50065;BME280;64524;47.848;-122.338;2023-04-22T07:01:31;102475.85;;;10.10;100.00
50065;BME280;64524;47.848;-122.338;2023-04-22T07:04:00;102478.91;;;10.08;100.00
50065;BME280;64524;47.848;-122.338;2023-04-22T07:06:49;102480.05;;;10.07;100.00
50065;BME280;64524;47.848;-122.338;2023-04-22T07:09:31;102483.58;;;10.04;100.00
50065;BME280;64524;47.848;-122.338;2023-04-22T07:15:16;102482.38;;;10.00;100.00
50065;BME280;64524;47.848;-122.338;2023-04-22T07:21:23;102481.17;;;9.92;100.00
50065;BME280;64524;47.848;-122.338;2023-04-22T07:24:35;102463.48;;;9.87;100.00
50065;BME280;64524;47.848;-122.338;2023-04-22T07:27:36;102457.27;;;9.83;100.00
50065;BME280;64524;47.848;-122.338;2023-04-22T07:33:55;102453.58;;;9.83;100.00
50065;BME280;64524;47.848;-122.338;2023-04-22T07:36:42;102441.16;;;9.84;100.00
50065;BME280;64524;47.848;-122.338;2023-04-22T07:39:31;102436.19;;;9.84;100.00
50065;BME280;64524;47.848;-122.338;2023-04-22T07:42:33;102433.95;;;9.85;100.00
50065;BME280;64524;47.848;-122.338;2023-04-22T07:52:36;102433.77;;;9.80;100.00
50065;BME280;64524;47.848;-122.338;2023-04-22T07:56:06;102436.44;;;9.78;100.00
50065;BME280;64524;47.848;-122.338;2023-04-22T08:02:16;102438.40;;;9.75;100.00
50065;BME280;64524;47.848;-122.338;2023-04-22T08:05:46;102433.09;;;9.72;100.00
50065;BME280;64524;47.848;-122.338;2023-04-22T08:12:06;102421.27;;;9.67;100.00
50065;BME280;64524;47.848;-122.338;2023-04-22T08:14:47;102422.34;;;9.64;100.00
50065;BME280;64524;47.848;-122.338;2023-04-22T08:17:49;102419.70;;;9.63;100.00
50065;BME280;64524;47.848;-122.338;2023-04-22T08:20:49;102423.54;;;9.63;100.00
50065;BME280;64524;47.848;-122.338;2023-04-22T08:23:37;102421.10;;;9.63;100.00
50065;BME280;64524;47.848;-122.338;2023-04-22T08:26:15;102428.48;;;9.62;100.00
50065;BME280;64524;47.848;-122.338;2023-04-22T08:28:54;102425.69;;;9.61;100.00
50065;BME280;64524;47.848;-122.338;2023-04-22T08:32:05;102423.04;;;9.59;100.00
50065;BME280;64524;47.848;-122.338;2023-04-22T08:34:38;102426.08;;;9.58;100.00
50065;BME280;64524;47.848;-122.338;2023-04-22T08:37:49;102428.36;;;9.59;100.00
50065;BME280;64524;47.848;-122.338;2023-04-22T08:40:48;102426.83;;;9.59;100.00
50065;BME280;64524;47.848;-122.338;2023-04-22T08:43:44;102426.14;;;9.59;100.00
50065;BME280;64524;47.848;-122.338;2023-04-22T08:49:38;102414.84;;;9.58;100.00
50065;BME280;64524;47.848;-122.338;2023-04-22T08:52:15;102404.83;;;9.59;100.00
50065;BME280;64524;47.848;-122.338;2023-04-22T08:54:55;102404.98;;;9.59;100.00
50065;BME280;64524;47.848;-122.338;2023-04-22T08:57:37;102399.33;;;9.59;100.00
50065;BME280;64524;47.848;-122.338;2023-04-22T09:00:30;102393.48;;;9.60;100.00
50065;BME280;64524;47.848;-122.338;2023-04-22T09:03:19;102386.39;;;9.60;100.00
50065;BME280;64524;47.848;-122.338;2023-04-22T09:05:54;102389.70;;;9.61;100.00
50065;BME280;64524;47.848;-122.338;2023-04-22T09:08:35;102390.39;;;9.61;100.00
50065;BME280;64524;47.848;-122.338;2023-04-22T09:11:07;102389.36;;;9.61;100.00
50065;BME280;64524;47.848;-122.338;2023-04-22T09:14:16;102385.90;;;9.61;100.00
50065;BME280;64524;47.848;-122.338;2023-04-22T09:17:17;102383.67;;;9.62;100.00
50065;BME280;64524;47.848;-122.338;2023-04-22T09:20:00;102378.66;;;9.62;100.00
50065;BME280;64524;47.848;-122.338;2023-04-22T09:25:55;102375.66;;;9.65;100.00
50065;BME280;64524;47.848;-122.338;2023-04-22T09:28:27;102372.23;;;9.66;100.00
50065;BME280;64524;47.848;-122.338;2023-04-22T09:31:00;102369.67;;;9.66;100.00
50065;BME280;64524;47.848;-122.338;2023-04-22T09:33:50;102371.09;;;9.67;100.00
50065;BME280;64524;47.848;-122.338;2023-04-22T09:36:42;102375.81;;;9.69;100.00
50065;BME280;64524;47.848;-122.338;2023-04-22T09:46:18;102367.63;;;9.71;100.00
50065;BME280;64524;47.848;-122.338;2023-04-22T09:52:36;102359.61;;;9.70;100.00
50065;BME280;64524;47.848;-122.338;2023-04-22T09:55:25;102356.61;;;9.69;100.00
50065;BME280;64524;47.848;-122.338;2023-04-22T10:01:44;102342.52;;;9.67;100.00
50065;BME280;64524;47.848;-122.338;2023-04-22T10:04:17;102340.41;;;9.62;100.00
50065;BME280;64524;47.848;-122.338;2023-04-22T10:06:49;102341.68;;;9.59;100.00
50065;BME280;64524;47.848;-122.338;2023-04-22T10:09:32;102333.11;;;9.56;100.00
50065;BME280;64524;47.848;-122.338;2023-04-22T10:12:04;102329.87;;;9.53;100.00
50065;BME280;64524;47.848;-122.338;2023-04-22T10:14:51;102329.27;;;9.52;100.00
50065;BME280;64524;47.848;-122.338;2023-04-22T10:17:21;102330.71;;;9.49;100.00
50065;BME280;64524;47.848;-122.338;2023-04-22T10:19:50;102327.38;;;9.48;100.00
50065;BME280;64524;47.848;-122.338;2023-04-22T10:22:22;102327.62;;;9.45;100.00
50065;BME280;64524;47.848;-122.338;2023-04-22T10:28:10;102321.54;;;9.40;100.00
50065;BME280;64524;47.848;-122.338;2023-04-22T10:30:53;102323.40;;;9.40;100.00
50065;BME280;64524;47.848;-122.338;2023-04-22T10:42:07;102315.67;;;9.37;100.00
50065;BME280;64524;47.848;-122.338;2023-04-22T10:48:12;102309.44;;;9.36;100.00
50065;BME280;64524;47.848;-122.338;2023-04-22T10:50:48;102308.36;;;9.35;100.00
50065;BME280;64524;47.848;-122.338;2023-04-22T10:53:40;102303.82;;;9.35;100.00
50065;BME280;64524;47.848;-122.338;2023-04-22T10:56:32;102301.05;;;9.35;100.00
50065;BME280;64524;47.848;-122.338;2023-04-22T10:59:15;102301.72;;;9.34;100.00
50065;BME280;64524;47.848;-122.338;2023-04-22T11:02:09;102297.86;;;9.33;100.00
50065;BME280;64524;47.848;-122.338;2023-04-22T11:04:49;102297.85;;;9.32;100.00
50065;BME280;64524;47.848;-122.338;2023-04-22T11:13:15;102301.05;;;9.30;100.00
50065;BME280;64524;47.848;-122.338;2023-04-22T11:15:47;102297.04;;;9.29;100.00
50065;BME280;64524;47.848;-122.338;2023-04-22T11:18:27;102295.48;;;9.29;100.00
50065;BME280;64524;47.848;-122.338;2023-04-22T11:21:16;102295.12;;;9.29;100.00
50065;BME280;64524;47.848;-122.338;2023-04-22T11:27:12;102294.07;;;9.29;100.00
50065;BME280;64524;47.848;-122.338;2023-04-22T11:34:02;102287.20;;;9.30;100.00
50065;BME280;64524;47.848;-122.338;2023-04-22T11:43:16;102280.19;;;9.36;100.00
50065;BME280;64524;47.848;-122.338;2023-04-22T11:46:06;102272.16;;;9.38;100.00
50065;BME280;64524;47.848;-122.338;2023-04-22T11:48:39;102269.33;;;9.40;100.00
50065;BME280;64524;47.848;-122.338;2023-04-22T11:51:13;102264.81;;;9.40;100.00
50065;BME280;64524;47.848;-122.338;2023-04-22T11:54:00;102262.60;;;9.41;100.00
50065;BME280;64524;47.848;-122.338;2023-04-22T11:56:36;102260.05;;;9.43;100.00
50065;BME280;64524;47.848;-122.338;2023-04-22T12:01:58;102255.63;;;9.44;100.00
50065;BME280;64524;47.848;-122.338;2023-04-22T12:04:27;102250.96;;;9.44;100.00
50065;BME280;64524;47.848;-122.338;2023-04-22T12:07:06;102249.61;;;9.45;100.00
50065;BME280;64524;47.848;-122.338;2023-04-22T12:09:42;102246.86;;;9.45;100.00
50065;BME280;64524;47.848;-122.338;2023-04-22T12:12:34;102240.33;;;9.47;100.00
50065;BME280;64524;47.848;-122.338;2023-04-22T12:15:25;102235.87;;;9.48;100.00
50065;BME280;64524;47.848;-122.338;2023-04-22T12:18:06;102230.15;;;9.48;100.00
50065;BME280;64524;47.848;-122.338;2023-04-22T12:20:46;102224.30;;;9.48;100.00
50065;BME280;64524;47.848;-122.338;2023-04-22T12:23:19;102219.84;;;9.49;100.00
50065;BME280;64524;47.848;-122.338;2023-04-22T12:25:54;102215.35;;;9.49;100.00
50065;BME280;64524;47.848;-122.338;2023-04-22T12:31:28;102202.89;;;9.49;100.00
50065;BME280;64524;47.848;-122.338;2023-04-22T12:33:58;102197.14;;;9.48;100.00
50065;BME280;64524;47.848;-122.338;2023-04-22T12:36:51;102195.73;;;9.47;100.00
50065;BME280;64524;47.848;-122.338;2023-04-22T12:39:30;102197.23;;;9.46;100.00
50065;BME280;64524;47.848;-122.338;2023-04-22T12:42:09;102197.20;;;9.45;100.00
50065;BME280;64524;47.848;-122.338;2023-04-22T12:44:41;102200.98;;;9.45;100.00
50065;BME280;64524;47.848;-122.338;2023-04-22T12:50:20;102197.82;;;9.39;100.00
50065;BME280;64524;47.848;-122.338;2023-04-22T12:52:53;102196.96;;;9.39;100.00
50065;BME280;64524;47.848;-122.338;2023-04-22T12:55:23;102191.05;;;9.38;100.00
50065;BME280;64524;47.848;-122.338;2023-04-22T12:58:22;102182.55;;;9.38;100.00
50065;BME280;64524;47.848;-122.338;2023-04-22T13:01:01;102181.96;;;9.36;100.00
50065;BME280;64524;47.848;-122.338;2023-04-22T13:03:43;102179.83;;;9.34;100.00
50065;BME280;64524;47.848;-122.338;2023-04-22T13:06:33;102182.58;;;9.34;100.00
50065;BME280;64524;47.848;-122.338;2023-04-22T13:09:07;102183.59;;;9.33;100.00
50065;BME280;64524;47.848;-122.338;2023-04-22T13:11:57;102183.92;;;9.33;100.00
50065;BME280;64524;47.848;-122.338;2023-04-22T13:21:39;102180.00;;;9.34;100.00
50065;BME280;64524;47.848;-122.338;2023-04-22T13:24:16;102176.70;;;9.34;100.00
50065;BME280;64524;47.848;-122.338;2023-04-22T13:26:51;102171.48;;;9.33;100.00
50065;BME280;64524;47.848;-122.338;2023-04-22T13:32:27;102176.61;;;9.32;100.00
50065;BME280;64524;47.848;-122.338;2023-04-22T13:35:07;102171.26;;;9.32;100.00
50065;BME280;64524;47.848;-122.338;2023-04-22T13:37:56;102170.17;;;9.31;100.00
50065;BME280;64524;47.848;-122.338;2023-04-22T13:43:56;102171.45;;;9.29;100.00
50065;BME280;64524;47.848;-122.338;2023-04-22T13:46:58;102171.71;;;9.26;100.00
50065;BME280;64524;47.848;-122.338;2023-04-22T13:49:41;102173.30;;;9.27;100.00
50065;BME280;64524;47.848;-122.338;2023-04-22T13:52:28;102171.08;;;9.28;100.00
50065;BME280;64524;47.848;-122.338;2023-04-22T14:01:30;102164.20;;;9.24;100.00
50065;BME280;64524;47.848;-122.338;2023-04-22T14:04:15;102163.38;;;9.21;100.00
50065;BME280;64524;47.848;-122.338;2023-04-22T14:10:14;102160.34;;;9.14;100.00
50065;BME280;64524;47.848;-122.338;2023-04-22T14:13:15;102156.72;;;9.10;100.00
50065;BME280;64524;47.848;-122.338;2023-04-22T14:16:01;102155.21;;;9.08;100.00
50065;BME280;64524;47.848;-122.338;2023-04-22T14:18:40;102155.45;;;9.04;100.00
50065;BME280;64524;47.848;-122.338;2023-04-22T14:21:25;102154.50;;;9.02;100.00
50065;BME280;64524;47.848;-122.338;2023-04-22T14:23:56;102148.41;;;9.01;100.00
50065;BME280;64524;47.848;-122.338;2023-04-22T14:26:49;102148.29;;;9.02;100.00
50065;BME280;64524;47.848;-122.338;2023-04-22T14:29:19;102142.92;;;9.02;100.00
50065;BME280;64524;47.848;-122.338;2023-04-22T14:31:50;102144.16;;;9.02;100.00
50065;BME280;64524;47.848;-122.338;2023-04-22T14:34:37;102141.46;;;9.05;100.00
50065;BME280;64524;47.848;-122.338;2023-04-22T14:37:31;102140.34;;;9.07;100.00
50065;BME280;64524;47.848;-122.338;2023-04-22T14:43:17;102131.01;;;9.11;100.00
50065;BME280;64524;47.848;-122.338;2023-04-22T14:46:01;102132.84;;;9.14;100.00
50065;BME280;64524;47.848;-122.338;2023-04-22T14:48:40;102137.28;;;9.17;100.00
50065;BME280;64524;47.848;-122.338;2023-04-22T14:54:36;102137.63;;;9.25;100.00
50065;BME280;64524;47.848;-122.338;2023-04-22T15:07:28;102134.45;;;9.50;100.00
50065;BME280;64524;47.848;-122.338;2023-04-22T15:25:15;102128.16;;;9.90;100.00
50065;BME280;64524;47.848;-122.338;2023-04-22T15:27:45;102132.63;;;9.94;100.00
50065;BME280;64524;47.848;-122.338;2023-04-22T15:30:37;102136.66;;;10.00;100.00
50065;BME280;64524;47.848;-122.338;2023-04-22T15:33:31;102135.11;;;10.06;100.00
50065;BME280;64524;47.848;-122.338;2023-04-22T15:36:03;102139.28;;;10.10;100.00
50065;BME280;64524;47.848;-122.338;2023-04-22T15:38:39;102137.31;;;10.13;100.00
50065;BME280;64524;47.848;-122.338;2023-04-22T15:41:37;102133.23;;;10.15;100.00
50065;BME280;64524;47.848;-122.338;2023-04-22T15:44:27;102133.14;;;10.17;100.00
50065;BME280;64524;47.848;-122.338;2023-04-22T15:47:10;102132.96;;;10.22;100.00
50065;BME280;64524;47.848;-122.338;2023-04-22T15:49:43;102130.16;;;10.26;100.00
50065;BME280;64524;47.848;-122.338;2023-04-22T15:52:15;102124.89;;;10.29;100.00
50065;BME280;64524;47.848;-122.338;2023-04-22T15:54:53;102117.43;;;10.33;100.00
50065;BME280;64524;47.848;-122.338;2023-04-22T15:57:47;102109.02;;;10.35;100.00
50065;BME280;64524;47.848;-122.338;2023-04-22T16:00:29;102104.30;;;10.39;100.00
50065;BME280;64524;47.848;-122.338;2023-04-22T16:03:05;102102.55;;;10.44;100.00
50065;BME280;64524;47.848;-122.338;2023-04-22T16:05:46;102101.11;;;10.47;100.00
50065;BME280;64524;47.848;-122.338;2023-04-22T16:08:23;102094.95;;;10.50;100.00
50065;BME280;64524;47.848;-122.338;2023-04-22T16:10:53;102091.17;;;10.50;100.00
50065;BME280;64524;47.848;-122.338;2023-04-22T16:16:25;102078.41;;;10.52;100.00
50065;BME280;64524;47.848;-122.338;2023-04-22T16:18:56;102071.20;;;10.54;100.00
50065;BME280;64524;47.848;-122.338;2023-04-22T16:21:35;102070.44;;;10.57;100.00
50065;BME280;64524;47.848;-122.338;2023-04-22T16:24:09;102067.41;;;10.60;100.00
50065;BME280;64524;47.848;-122.338;2023-04-22T16:26:38;102058.83;;;10.62;100.00
50065;BME280;64524;47.848;-122.338;2023-04-22T16:29:35;102058.74;;;10.65;100.00
50065;BME280;64524;47.848;-122.338;2023-04-22T16:32:24;102055.90;;;10.68;100.00
50065;BME280;64524;47.848;-122.338;2023-04-22T16:35:18;102058.41;;;10.71;100.00
50065;BME280;64524;47.848;-122.338;2023-04-22T16:37:59;102049.88;;;10.74;100.00
50065;BME280;64524;47.848;-122.338;2023-04-22T16:40:35;102050.15;;;10.78;100.00
50065;BME280;64524;47.848;-122.338;2023-04-22T16:43:08;102050.06;;;10.81;100.00
50065;BME280;64524;47.848;-122.338;2023-04-22T16:45:56;102042.34;;;10.83;100.00
50065;BME280;64524;47.848;-122.338;2023-04-22T16:52:23;102036.55;;;10.91;100.00
50065;BME280;64524;47.848;-122.338;2023-04-22T16:54:55;102037.69;;;10.95;100.00
50065;BME280;64524;47.848;-122.338;2023-04-22T16:57:45;102030.69;;;10.99;100.00
50065;BME280;64524;47.848;-122.338;2023-04-22T17:00:21;102030.27;;;11.02;100.00
50065;BME280;64524;47.848;-122.338;2023-04-22T17:02:52;102028.27;;;11.05;100.00
50065;BME280;64524;47.848;-122.338;2023-04-22T17:05:32;102026.64;;;11.08;100.00
50065;BME280;64524;47.848;-122.338;2023-04-22T17:08:04;102019.91;;;11.09;100.00
50065;BME280;64524;47.848;-122.338;2023-04-22T17:10:43;102016.02;;;11.12;100.00
50065;BME280;64524;47.848;-122.338;2023-04-22T17:13:13;102011.25;;;11.15;100.00
50065;BME280;64524;47.848;-122.338;2023-04-22T17:16:03;102009.40;;;11.17;100.00
50065;BME280;64524;47.848;-122.338;2023-04-22T17:18:36;102008.09;;;11.20;100.00
50065;BME280;64524;47.848;-122.338;2023-04-22T17:21:06;102004.71;;;11.23;100.00
50065;BME280;64524;47.848;-122.338;2023-04-22T17:23:38;101996.95;;;11.24;100.00
50065;BME280;64524;47.848;-122.338;2023-04-22T17:26:10;101997.55;;;11.27;100.00
50065;BME280;64524;47.848;-122.338;2023-04-22T17:28:43;101992.95;;;11.30;100.00
50065;BME280;64524;47.848;-122.338;2023-04-22T17:31:36;101987.84;;;11.33;100.00
50065;BME280;64524;47.848;-122.338;2023-04-22T17:34:22;101984.29;;;11.36;100.00
50065;BME280;64524;47.848;-122.338;2023-04-22T17:37:05;101983.30;;;11.39;100.00
50065;BME280;64524;47.848;-122.338;2023-04-22T17:39:37;101984.81;;;11.42;100.00
50065;BME280;64524;47.848;-122.338;2023-04-22T17:42:39;101985.44;;;11.46;100.00
50065;BME280;64524;47.848;-122.338;2023-04-22T17:45:22;101980.35;;;11.50;100.00
50065;BME280;64524;47.848;-122.338;2023-04-22T17:47:54;101978.73;;;11.55;100.00
50065;BME280;64524;47.848;-122.338;2023-04-22T17:53:13;101975.28;;;11.62;100.00
50065;BME280;64524;47.848;-122.338;2023-04-22T17:58:32;101971.66;;;11.68;100.00
50065;BME280;64524;47.848;-122.338;2023-04-22T18:01:08;101968.46;;;11.72;100.00
50065;BME280;64524;47.848;-122.338;2023-04-22T18:03:41;101963.00;;;11.76;100.00
50065;BME280;64524;47.848;-122.338;2023-04-22T18:06:34;101964.48;;;11.79;100.00
50065;BME280;64524;47.848;-122.338;2023-04-22T18:09:13;101963.37;;;11.83;100.00
50065;BME280;64524;47.848;-122.338;2023-04-22T18:11:45;101962.81;;;11.88;100.00
50065;BME280;64524;47.848;-122.338;2023-04-22T18:14:17;101956.85;;;11.92;100.00
50065;BME280;64524;47.848;-122.338;2023-04-22T18:16:48;101955.88;;;11.95;100.00
50065;BME280;64524;47.848;-122.338;2023-04-22T18:19:26;101951.10;;;11.98;100.00
50065;BME280;64524;47.848;-122.338;2023-04-22T18:21:55;101952.27;;;12.03;100.00
50065;BME280;64524;47.848;-122.338;2023-04-22T18:24:27;101952.74;;;12.08;100.00
50065;BME280;64524;47.848;-122.338;2023-04-22T18:26:58;101949.38;;;12.13;100.00
50065;BME280;64524;47.848;-122.338;2023-04-22T18:29:57;101950.73;;;12.17;100.00
50065;BME280;64524;47.848;-122.338;2023-04-22T18:32:39;101945.44;;;12.22;100.00
50065;BME280;64524;47.848;-122.338;2023-04-22T18:35:20;101940.88;;;12.26;100.00
50065;BME280;64524;47.848;-122.338;2023-04-22T18:41:32;101936.84;;;12.39;100.00
50065;BME280;64524;47.848;-122.338;2023-04-22T18:44:47;101933.80;;;12.43;100.00
50065;BME280;64524;47.848;-122.338;2023-04-22T18:47:39;101928.83;;;12.46;100.00